Time;durP1;ratioP1;P1;durP2;ratioP2;P2;SDS_P1;SDS_P2;PMS_P1;PMS_P2;Temp;Humidity;BMP_temperature;BMP_pressure;BME280_temperature;BME280_humidity;BME280_pressure;Samples;Min_cycle;Max_cycle;Signal;HPM_P1;HPM_P2
2020/12/02 00:00:36;;;;;;;21.83;12.87;;;;;;;2.28;100.00;98268.22;5075315;28;20212;-67
2020/12/02 00:03:06;;;;;;;24.50;12.50;;;;;;;2.28;100.00;98268.22;5073764;28;20419;-68
2020/12/02 00:05:34;;;;;;;24.27;13.30;;;;;;;2.24;100.00;98261.41;5075449;28;20208;-68
2020/12/02 00:08:08;;;;;;;25.03;13.87;;;;;;;2.26;100.00;98263.97;5075086;28;20222;-68
2020/12/02 00:10:35;;;;;;;23.57;13.37;;;;;;;2.20;100.00;98267.63;5075076;28;20207;-67
2020/12/02 00:13:01;;;;;;;25.23;13.77;;;;;;;2.19;100.00;98272.88;5075627;28;20235;-68
2020/12/02 00:15:27;;;;;;;21.70;13.30;;;;;;;2.17;100.00;98279.94;5075303;28;20234;-67
2020/12/02 00:17:55;;;;;;;25.10;12.87;;;;;;;2.11;100.00;98274.91;5074238;28;20239;-68
2020/12/02 00:20:21;;;;;;;24.60;13.23;;;;;;;2.05;100.00;98281.19;5074884;28;20692;-68
2020/12/02 00:22:48;;;;;;;25.30;13.93;;;;;;;2.00;100.00;98277.03;5075063;28;20573;-68
2020/12/02 00:25:14;;;;;;;22.13;12.53;;;;;;;2.03;100.00;98272.56;5062858;28;20208;-68
2020/12/02 00:27:40;;;;;;;21.17;12.90;;;;;;;1.94;100.00;98278.09;5054988;28;20299;-68
2020/12/02 00:30:08;;;;;;;23.80;13.30;;;;;;;1.96;100.00;98271.06;5053418;28;20204;-68
2020/12/02 00:32:36;;;;;;;21.23;12.60;;;;;;;1.96;100.00;98275.44;5054946;28;20569;-67
2020/12/02 00:35:04;;;;;;;21.63;13.43;;;;;;;1.92;100.00;98277.28;5054660;28;20212;-68
2020/12/02 00:37:30;;;;;;;19.63;12.17;;;;;;;1.96;100.00;98275.44;5054931;28;20232;-68
2020/12/02 00:39:57;;;;;;;20.47;13.03;;;;;;;1.93;100.00;98278.13;5054912;28;20220;-68
2020/12/02 00:42:24;;;;;;;19.00;12.30;;;;;;;1.93;100.00;98270.31;5054848;28;20579;-68
2020/12/02 00:44:50;;;;;;;21.80;13.10;;;;;;;1.96;100.00;98268.44;5054553;28;20262;-68
2020/12/02 00:47:20;;;;;;;23.27;12.40;;;;;;;1.98;100.00;98269.28;5054834;28;20577;-68
2020/12/02 00:49:47;;;;;;;23.20;13.20;;;;;;;1.98;100.00;98263.19;5054704;28;20262;-68
2020/12/02 00:52:13;;;;;;;24.67;13.13;;;;;;;1.97;100.00;98251.91;5054541;28;20571;-68
2020/12/02 00:54:41;;;;;;;23.87;13.50;;;;;;;1.96;100.00;98252.81;5053597;28;20213;-68
2020/12/02 00:57:08;;;;;;;20.60;12.07;;;;;;;1.98;100.00;98258.84;5053619;28;20257;-68
2020/12/02 00:59:37;;;;;;;20.03;11.87;;;;;;;2.00;100.00;98261.38;5054172;28;20220;-68
2020/12/02 01:02:10;;;;;;;20.73;11.67;;;;;;;1.94;100.00;98257.25;5054253;28;20213;-68
2020/12/02 01:04:38;;;;;;;20.67;12.07;;;;;;;2.00;100.00;98262.25;5054019;28;20208;-68
2020/12/02 01:07:04;;;;;;;20.20;11.80;;;;;;;2.02;100.00;98259.59;5054242;28;20212;-68
2020/12/02 01:09:30;;;;;;;21.77;11.63;;;;;;;1.97;100.00;98257.13;5053773;28;20208;-70
2020/12/02 01:12:00;;;;;;;23.07;12.37;;;;;;;1.96;100.00;98254.59;5053795;28;20250;-68
2020/12/02 01:14:27;;;;;;;17.97;11.00;;;;;;;1.95;100.00;98258.94;5054047;28;20228;-68
2020/12/02 01:16:55;;;;;;;24.10;13.57;;;;;;;2.01;100.00;98248.31;5053959;28;20568;-68
2020/12/02 01:19:24;;;;;;;19.63;11.83;;;;;;;2.04;100.00;98257.78;5053937;28;20251;-68
2020/12/02 01:21:54;;;;;;;21.73;11.63;;;;;;;2.09;100.00;98250.66;5052567;28;20574;-68
2020/12/02 01:24:33;;;;;;;20.10;10.93;;;;;;;2.07;100.00;98250.72;5058386;28;20196;-68
2020/12/02 01:27:06;;;;;;;19.13;11.73;;;;;;;2.06;100.00;98245.53;5073992;28;20218;-68
2020/12/02 01:29:32;;;;;;;21.23;12.40;;;;;;;2.06;100.00;98254.22;5073732;28;20204;-68
2020/12/02 01:31:59;;;;;;;19.53;11.70;;;;;;;2.06;100.00;98254.22;5073863;28;20219;-68
2020/12/02 01:34:27;;;;;;;20.63;11.83;;;;;;;2.06;100.00;98254.22;5073871;28;20218;-68
2020/12/02 01:37:03;;;;;;;18.97;11.27;;;;;;;2.07;100.00;98252.44;5073399;28;20228;-68
2020/12/02 01:39:32;;;;;;;17.43;10.97;;;;;;;2.04;100.00;98253.44;5073298;28;20236;-68
2020/12/02 01:41:58;;;;;;;21.17;11.07;;;;;;;2.02;100.00;98250.00;5073615;28;20233;-68
2020/12/02 01:44:24;;;;;;;19.93;11.67;;;;;;;2.00;100.00;98250.97;5073458;28;20208;-68
2020/12/02 01:47:02;;;;;;;20.43;11.50;;;;;;;1.97;100.00;98248.47;5071578;28;20207;-68
2020/12/02 01:49:35;;;;;;;21.00;12.43;;;;;;;1.94;100.00;98246.81;5073595;28;20203;-68
2020/12/02 01:52:11;;;;;;;20.87;11.33;;;;;;;2.00;100.00;98244.00;5073619;28;20215;-69
2020/12/02 01:54:45;;;;;;;20.30;10.97;;;;;;;1.93;100.00;98250.31;5073232;28;20205;-69
2020/12/02 01:57:19;;;;;;;21.10;11.80;;;;;;;1.92;100.00;98246.03;5073358;28;20222;-68
2020/12/02 01:59:52;;;;;;;19.77;10.87;;;;;;;1.93;100.00;98241.66;5072998;28;20207;-68
2020/12/02 02:02:26;;;;;;;19.40;11.33;;;;;;;1.95;100.00;98243.28;5073321;28;20215;-68
2020/12/02 02:04:58;;;;;;;20.77;11.03;;;;;;;1.93;100.00;98237.31;5073214;28;20229;-68
2020/12/02 02:07:26;;;;;;;20.00;11.97;;;;;;;1.99;100.00;98244.91;5073300;28;20213;-68
2020/12/02 02:09:54;;;;;;;18.87;11.50;;;;;;;1.98;100.00;98240.59;5073117;28;20692;-68
2020/12/02 02:12:56;;;;;;;17.97;11.27;;;;;;;1.99;100.00;98244.91;5072921;28;20734;-68
2020/12/02 02:15:41;;;;;;;17.57;11.43;;;;;;;2.01;100.00;98250.03;5067834;28;20207;-68
2020/12/02 02:18:10;;;;;;;21.17;12.07;;;;;;;2.00;100.00;98245.75;5073190;28;20689;-68
2020/12/02 02:20:41;;;;;;;20.17;11.57;;;;;;;2.05;100.00;98243.84;5072810;28;20665;-68
2020/12/02 02:23:10;;;;;;;21.10;10.77;;;;;;;2.04;100.00;98248.22;5072987;28;20213;-68
2020/12/02 02:25:37;;;;;;;18.77;11.47;;;;;;;2.03;100.00;98238.66;5058239;28;20203;-68
2020/12/02 02:28:05;;;;;;;20.77;11.20;;;;;;;2.05;100.00;98234.28;5052738;28;20681;-67
2020/12/02 02:30:32;;;;;;;19.87;11.50;;;;;;;2.04;100.00;98240.41;5052906;28;20215;-68
2020/12/02 02:32:58;;;;;;;22.07;11.53;;;;;;;2.04;100.00;98237.78;5052702;28;20212;-68
2020/12/02 02:35:25;;;;;;;18.97;11.10;;;;;;;2.05;100.00;98233.41;5053074;28;20215;-68
2020/12/02 02:37:51;;;;;;;18.83;10.63;;;;;;;2.06;100.00;98235.97;5052871;28;20237;-68
2020/12/02 02:40:17;;;;;;;21.63;12.33;;;;;;;2.03;100.00;98230.03;5051362;28;20204;-69
2020/12/02 02:42:46;;;;;;;21.40;12.10;;;;;;;2.01;100.00;98222.25;5056746;28;20682;-69
2020/12/02 02:45:15;;;;;;;21.10;11.77;;;;;;;1.96;100.00;98221.53;5056742;28;20211;-69
2020/12/02 02:47:41;;;;;;;21.10;11.07;;;;;;;1.93;100.00;98229.47;5056876;28;20211;-68
2020/12/02 02:50:11;;;;;;;19.47;11.53;;;;;;;1.90;100.00;98221.75;5057065;28;20662;-69
2020/12/02 02:52:38;;;;;;;21.67;12.00;;;;;;;1.84;100.00;98216.75;5056526;28;20262;-67
2020/12/02 02:55:04;;;;;;;19.40;11.07;;;;;;;1.85;100.00;98221.03;5056863;28;20212;-68
2020/12/02 02:57:30;;;;;;;19.90;11.07;;;;;;;1.83;100.00;98212.44;5056460;28;20221;-67
2020/12/02 02:59:56;;;;;;;21.70;12.60;;;;;;;1.83;100.00;98209.00;5056906;28;20208;-68
2020/12/02 03:02:23;;;;;;;21.83;13.03;;;;;;;1.82;100.00;98218.56;5056840;28;20212;-68
2020/12/02 03:04:49;;;;;;;21.97;12.10;;;;;;;1.85;100.00;98221.03;5055063;28;20212;-68
2020/12/02 03:07:17;;;;;;;22.87;11.93;;;;;;;1.82;100.00;98209.88;5056379;28;20212;-69
2020/12/02 03:09:43;;;;;;;22.47;12.20;;;;;;;1.81;100.00;98213.38;5056273;28;20212;-69
2020/12/02 03:12:09;;;;;;;23.93;12.87;;;;;;;1.81;100.00;98219.47;5056215;28;20259;-68
2020/12/02 03:14:41;;;;;;;23.63;13.20;;;;;;;1.80;100.00;98215.16;5056065;28;20204;-69
2020/12/02 03:17:10;;;;;;;20.07;11.67;;;;;;;1.79;100.00;98221.25;5056570;28;20212;-68
2020/12/02 03:19:40;;;;;;;20.70;12.17;;;;;;;1.75;100.00;98217.06;5056339;28;20273;-68
2020/12/02 03:22:11;;;;;;;23.63;12.97;;;;;;;1.79;100.00;98216.03;5056418;28;20212;-68
2020/12/02 03:24:38;;;;;;;21.60;12.70;;;;;;;1.81;100.00;98222.06;5062769;28;20226;-68
2020/12/02 03:27:04;;;;;;;23.23;13.03;;;;;;;1.78;100.00;98226.53;5076032;28;20211;-68
2020/12/02 03:29:30;;;;;;;24.57;12.87;;;;;;;1.77;100.00;98223.06;5076305;28;20226;-68
2020/12/02 03:31:56;;;;;;;24.27;13.40;;;;;;;1.80;100.00;98219.50;5074635;28;20576;-67
2020/12/02 03:34:22;;;;;;;27.57;13.47;;;;;;;1.81;100.00;98222.06;5076214;28;20211;-67
2020/12/02 03:36:50;;;;;;;26.73;13.97;;;;;;;1.80;100.00;98217.75;5075788;28;20218;-68
2020/12/02 03:39:16;;;;;;;23.90;13.00;;;;;;;1.80;100.00;98217.75;5075905;28;20250;-68
2020/12/02 03:41:43;;;;;;;23.13;12.77;;;;;;;1.83;100.00;98215.03;5075673;28;20219;-67
2020/12/02 03:44:10;;;;;;;23.93;13.13;;;;;;;1.85;100.00;98208.00;5075862;28;20212;-67
2020/12/02 03:46:36;;;;;;;25.73;13.23;;;;;;;1.82;100.00;98215.09;5075656;28;20215;-67
2020/12/02 03:49:04;;;;;;;29.67;14.60;;;;;;;1.81;100.00;98216.84;5075893;28;20238;-67
2020/12/02 03:51:31;;;;;;;26.00;13.23;;;;;;;1.83;100.00;98211.59;5075265;28;20562;-68
2020/12/02 03:53:57;;;;;;;23.13;13.27;;;;;;;1.89;100.00;98220.03;5074807;28;20294;-68
2020/12/02 03:56:24;;;;;;;25.80;13.00;;;;;;;1.91;100.00;98215.63;5075719;28;20222;-67
2020/12/02 03:58:50;;;;;;;24.53;12.53;;;;;;;1.83;100.00;98214.22;5073859;28;20228;-69
2020/12/02 04:01:17;;;;;;;23.13;13.23;;;;;;;1.81;100.00;98209.03;5075582;28;20719;-69
2020/12/02 04:03:43;;;;;;;24.17;12.57;;;;;;;1.80;100.00;98211.69;5075528;28;20216;-68
2020/12/02 04:06:10;;;;;;;22.73;13.07;;;;;;;1.80;100.00;98212.56;5075565;28;20212;-68
2020/12/02 04:08:38;;;;;;;24.13;13.70;;;;;;;1.78;100.00;98216.94;5075559;28;20211;-68
2020/12/02 04:11:06;;;;;;;23.93;13.00;;;;;;;1.79;100.00;98215.19;5075051;28;20214;-68
2020/12/02 04:13:32;;;;;;;23.87;12.93;;;;;;;1.77;100.00;98212.63;5075325;28;20219;-68
2020/12/02 04:15:58;;;;;;;22.47;13.60;;;;;;;1.80;100.00;98209.09;5075044;28;20673;-68
2020/12/02 04:18:24;;;;;;;24.17;12.53;;;;;;;1.81;100.00;98218.59;5075141;28;20240;-68
2020/12/02 04:20:50;;;;;;;22.47;12.37;;;;;;;1.79;100.00;98212.59;5075177;28;20210;-68
2020/12/02 04:23:16;;;;;;;22.60;12.93;;;;;;;1.77;100.00;98220.47;5073551;28;20208;-68
2020/12/02 04:25:42;;;;;;;23.13;12.67;;;;;;;1.77;100.00;98212.63;5059665;28;20208;-67
2020/12/02 04:28:09;;;;;;;20.97;12.10;;;;;;;1.79;100.00;98208.22;5055274;28;20548;-68
2020/12/02 04:30:35;;;;;;;20.87;11.87;;;;;;;1.83;100.00;98212.44;5055152;28;20213;-67
2020/12/02 04:33:01;;;;;;;23.67;12.30;;;;;;;1.85;100.00;98210.63;5055173;28;20304;-67
2020/12/02 04:35:27;;;;;;;21.40;12.40;;;;;;;1.86;100.00;98201.94;5055041;28;20307;-68
2020/12/02 04:37:53;;;;;;;20.50;12.10;;;;;;;1.86;100.00;98209.75;5054772;28;20566;-67
2020/12/02 04:40:24;;;;;;;23.13;12.43;;;;;;;1.85;100.00;98205.41;5054942;28;20219;-68
2020/12/02 04:42:55;;;;;;;23.20;12.50;;;;;;;1.87;100.00;98206.22;5054549;28;20677;-68
2020/12/02 04:45:23;;;;;;;22.03;12.83;;;;;;;1.91;100.00;98205.19;5054694;28;20215;-68
2020/12/02 04:47:49;;;;;;;25.20;13.40;;;;;;;1.90;100.00;98193.09;5054501;28;20697;-68
2020/12/02 04:50:18;;;;;;;21.57;12.97;;;;;;;1.91;100.00;98205.19;5053119;28;20204;-69
2020/12/02 04:52:58;;;;;;;22.17;12.57;;;;;;;1.95;100.00;98192.91;5054599;28;20242;-68
2020/12/02 04:55:24;;;;;;;21.53;12.60;;;;;;;1.98;100.00;98192.81;5054716;28;20577;-68
2020/12/02 04:57:50;;;;;;;22.90;12.87;;;;;;;1.94;100.00;98192.09;5054605;28;20208;-68
2020/12/02 05:00:30;;;;;;;23.70;12.20;;;;;;;1.97;100.00;98194.56;5054285;28;20258;-68
2020/12/02 05:03:09;;;;;;;22.43;12.80;;;;;;;1.98;100.00;98198.03;5054433;28;20261;-68
2020/12/02 05:05:35;;;;;;;19.80;11.87;;;;;;;1.97;100.00;98189.34;5054377;28;20212;-68
2020/12/02 05:08:22;;;;;;;21.03;12.33;;;;;;;1.94;100.00;98192.09;5054298;28;20221;-68
2020/12/02 05:10:48;;;;;;;20.40;11.93;;;;;;;1.91;100.00;98191.34;5053880;28;20692;-68
2020/12/02 05:13:14;;;;;;;18.90;11.73;;;;;;;1.90;100.00;98202.66;5034160;28;20209;-69
2020/12/02 05:15:41;;;;;;;22.00;12.77;;;;;;;1.90;100.00;98203.50;5032716;28;20304;-69
2020/12/02 05:18:20;;;;;;;19.40;12.17;;;;;;;1.90;100.00;98206.13;5034198;28;20259;-69
2020/12/02 05:21:02;;;;;;;18.73;11.33;;;;;;;1.92;100.00;98212.16;5034259;28;20212;-69
2020/12/02 05:23:28;;;;;;;20.33;11.90;;;;;;;1.93;100.00;98212.97;5034245;28;20215;-69
2020/12/02 05:25:54;;;;;;;19.63;12.03;;;;;;;1.92;100.00;98217.34;5050805;28;20662;-69
2020/12/02 05:28:26;;;;;;;20.70;12.77;;;;;;;1.94;100.00;98215.53;5054104;28;20208;-69
2020/12/02 05:31:03;;;;;;;17.90;10.87;;;;;;;1.87;100.00;98214.06;5053908;28;20230;-68
2020/12/02 05:33:31;;;;;;;15.83;10.27;;;;;;;1.82;100.00;98215.94;5053971;28;20219;-68
2020/12/02 05:36:00;;;;;;;16.70;11.03;;;;;;;1.81;100.00;98223.81;5053692;28;20211;-69
2020/12/02 05:38:30;;;;;;;18.00;11.40;;;;;;;1.93;100.00;98223.41;5053733;28;20270;-68
2020/12/02 05:40:59;;;;;;;19.23;11.13;;;;;;;1.85;100.00;98220.22;5052062;28;20208;-69
2020/12/02 05:43:32;;;;;;;17.40;10.73;;;;;;;1.83;100.00;98222.03;5053779;28;20208;-68
2020/12/02 05:45:59;;;;;;;17.90;11.40;;;;;;;1.78;100.00;98210.91;5053361;28;20216;-68
2020/12/02 05:48:31;;;;;;;19.43;11.43;;;;;;;1.76;100.00;98217.91;5053397;28;20224;-69
2020/12/02 05:50:57;;;;;;;16.10;11.10;;;;;;;1.78;100.00;98214.34;5053235;28;20219;-69
2020/12/02 05:53:32;;;;;;;18.17;11.33;;;;;;;1.78;100.00;98210.91;5053597;28;20215;-68
2020/12/02 05:55:59;;;;;;;18.03;11.37;;;;;;;1.79;100.00;98213.44;5053597;28;20207;-69
2020/12/02 05:58:27;;;;;;;16.83;11.43;;;;;;;1.82;100.00;98213.34;5053210;28;20235;-68
2020/12/02 06:00:53;;;;;;;16.70;10.40;;;;;;;1.84;100.00;98208.09;5053021;28;20211;-68
2020/12/02 06:03:31;;;;;;;17.77;11.33;;;;;;;1.85;100.00;98208.00;5053362;28;20236;-69
2020/12/02 06:06:01;;;;;;;18.57;11.23;;;;;;;1.86;100.00;98201.94;5053458;28;20213;-69
2020/12/02 06:08:36;;;;;;;17.97;11.50;;;;;;;1.87;100.00;98200.16;5051513;28;20211;-69
2020/12/02 06:11:28;;;;;;;18.23;11.10;;;;;;;1.81;100.00;98203.81;5055001;28;20207;-69
2020/12/02 06:13:56;;;;;;;17.00;10.70;;;;;;;1.86;100.00;98211.47;5073192;28;20579;-69
2020/12/02 06:16:49;;;;;;;18.37;11.20;;;;;;;1.84;100.00;98198.50;5072499;28;20428;-69
2020/12/02 06:19:20;;;;;;;17.87;10.83;;;;;;;1.88;100.00;98207.94;5025619;28;20235;-69
2020/12/02 06:21:49;;;;;;;16.10;10.70;;;;;;;1.86;100.00;98212.34;5072957;28;20218;-69
2020/12/02 06:24:32;;;;;;;17.20;10.97;;;;;;;1.93;100.00;98213.84;5069714;28;20200;-69
2020/12/02 06:26:58;;;;;;;16.37;10.87;;;;;;;1.91;100.00;98213.03;5053148;28;20219;-69
2020/12/02 06:29:26;;;;;;;17.47;11.30;;;;;;;1.89;100.00;98208.78;5053089;28;20251;-69
2020/12/02 06:31:57;;;;;;;18.23;11.70;;;;;;;1.93;100.00;98213.84;5052748;28;20204;-69
2020/12/02 06:34:26;;;;;;;18.33;11.07;;;;;;;1.94;100.00;98199.91;5051387;28;20214;-69
2020/12/02 06:37:08;;;;;;;17.20;11.20;;;;;;;2.03;100.00;98206.56;5053019;28;20219;-69
2020/12/02 06:39:38;;;;;;;17.53;10.93;;;;;;;1.96;100.00;98198.09;5052732;28;20238;-70
2020/12/02 06:42:23;;;;;;;18.77;11.47;;;;;;;1.97;100.00;98194.56;5053047;28;20303;-69
2020/12/02 06:45:07;;;;;;;16.07;10.60;;;;;;;1.99;100.00;98203.22;5052972;28;20204;-69
2020/12/02 06:47:36;;;;;;;20.03;12.00;;;;;;;1.95;100.00;98196.38;5052873;28;20214;-69
2020/12/02 06:50:11;;;;;;;17.07;10.83;;;;;;;1.93;100.00;98198.22;5052723;28;20212;-69
2020/12/02 06:52:39;;;;;;;17.27;11.13;;;;;;;1.87;100.00;98198.41;5052718;28;20218;-67
2020/12/02 06:55:15;;;;;;;17.77;12.27;;;;;;;1.88;100.00;98191.44;5052928;28;20208;-69
2020/12/02 06:57:41;;;;;;;15.50;10.30;;;;;;;1.89;100.00;98194.00;5052675;28;20696;-69
2020/12/02 07:00:15;;;;;;;16.90;11.63;;;;;;;1.94;100.00;98189.47;5050975;28;20238;-70
2020/12/02 07:02:48;;;;;;;17.87;11.43;;;;;;;1.98;100.00;98191.09;5052423;28;20203;-70
2020/12/02 07:05:24;;;;;;;18.30;11.70;;;;;;;1.99;100.00;98186.72;5052369;28;20224;-70
2020/12/02 07:08:02;;;;;;;19.30;12.30;;;;;;;1.99;100.00;98197.13;5052775;28;20208;-69
2020/12/02 07:10:28;;;;;;;19.03;11.43;;;;;;;2.01;100.00;98190.09;5052693;28;20212;-70
2020/12/02 07:12:55;;;;;;;18.37;12.20;;;;;;;2.01;100.00;98190.09;5053051;28;20236;-70
2020/12/02 07:15:24;;;;;;;17.37;10.80;;;;;;;2.03;100.00;98193.53;5052749;28;20208;-70
2020/12/02 07:17:50;;;;;;;17.93;11.07;;;;;;;2.08;100.00;98202.03;5052521;28;20578;-70
2020/12/02 07:20:19;;;;;;;16.87;11.10;;;;;;;2.07;100.00;98198.56;5052501;28;20211;-69
2020/12/02 07:22:52;;;;;;;17.23;10.70;;;;;;;2.12;100.00;98209.69;5052361;28;20220;-71
2020/12/02 07:25:21;;;;;;;17.80;10.97;;;;;;;2.14;100.00;98207.88;5062723;28;20210;-70
2020/12/02 07:27:47;;;;;;;17.67;11.17;;;;;;;2.15;100.00;98212.19;5074993;28;20208;-70
2020/12/02 07:30:26;;;;;;;19.03;12.13;;;;;;;2.15;100.00;98203.53;5076242;28;20294;-70
2020/12/02 07:32:53;;;;;;;16.97;11.00;;;;;;;2.14;100.00;98207.88;5076141;28;20203;-70
2020/12/02 07:35:19;;;;;;;19.30;12.23;;;;;;;2.18;100.00;98213.84;5075726;28;20218;-70
2020/12/02 07:37:46;;;;;;;17.47;11.07;;;;;;;2.18;100.00;98206.00;5076002;28;20212;-70
2020/12/02 07:40:30;;;;;;;19.80;12.10;;;;;;;2.19;100.00;98205.97;5075688;28;20708;-70
2020/12/02 07:42:58;;;;;;;18.10;11.60;;;;;;;2.22;100.00;98211.09;5075946;28;20219;-70
2020/12/02 07:45:27;;;;;;;18.50;11.43;;;;;;;2.25;100.00;98210.97;5075822;28;20207;-70
2020/12/02 07:47:58;;;;;;;17.47;10.67;;;;;;;2.27;100.00;98209.16;5075890;28;20210;-69
2020/12/02 07:50:29;;;;;;;18.87;11.40;;;;;;;2.30;100.00;98209.06;5075624;28;20212;-69
2020/12/02 07:53:02;;;;;;;17.90;10.97;;;;;;;2.34;100.00;98205.41;5073884;28;20204;-70
2020/12/02 07:55:37;;;;;;;18.50;10.87;;;;;;;2.36;100.00;98208.84;5075535;28;20211;-69
2020/12/02 07:58:03;;;;;;;18.90;11.67;;;;;;;2.36;100.00;98208.84;5075426;28;20210;-70
2020/12/02 08:00:35;;;;;;;20.83;12.00;;;;;;;2.39;100.00;98198.28;5075339;28;20208;-70
2020/12/02 08:03:01;;;;;;;18.33;11.47;;;;;;;2.41;100.00;98216.50;5075588;28;20215;-70
2020/12/02 08:05:45;;;;;;;19.53;12.77;;;;;;;2.45;100.00;98202.44;5075259;28;20210;-70
2020/12/02 08:08:11;;;;;;;17.63;11.73;;;;;;;2.47;100.00;98201.50;5075562;28;20207;-69
2020/12/02 08:10:38;;;;;;;17.97;12.30;;;;;;;2.51;100.00;98207.44;5075492;28;20574;-70
2020/12/02 08:13:13;;;;;;;19.23;12.10;;;;;;;2.55;100.00;98209.88;5075426;28;20719;-70
2020/12/02 08:15:50;;;;;;;18.27;11.40;;;;;;;2.54;100.00;98210.78;5075447;28;20230;-71
2020/12/02 08:18:19;;;;;;;19.10;12.10;;;;;;;2.55;100.00;98199.44;5073483;28;20284;-70
2020/12/02 08:20:46;;;;;;;18.67;11.40;;;;;;;2.58;100.00;98206.31;5075316;28;20219;-71
2020/12/02 08:23:18;;;;;;;17.73;11.73;;;;;;;2.59;100.00;98208.00;5075140;28;20207;-71
2020/12/02 08:25:55;;;;;;;17.87;12.03;;;;;;;2.61;100.00;98206.19;5059487;28;20586;-70
2020/12/02 08:28:24;;;;;;;19.07;11.60;;;;;;;2.64;100.00;98208.69;5054862;28;20340;-69
2020/12/02 08:31:00;;;;;;;18.93;11.53;;;;;;;2.67;100.00;98213.78;5054754;28;20214;-69
2020/12/02 08:33:26;;;;;;;16.67;11.60;;;;;;;2.69;100.00;98207.59;5052909;28;20265;-70
2020/12/02 08:35:52;;;;;;;16.80;11.67;;;;;;;2.71;100.00;98205.81;5052251;28;20212;-71
2020/12/02 08:38:26;;;;;;;20.23;11.77;;;;;;;2.73;100.00;98206.59;5052392;28;20211;-71
2020/12/02 08:40:55;;;;;;;19.10;11.90;;;;;;;2.77;100.00;98205.59;5053186;28;20254;-69
2020/12/02 08:43:33;;;;;;;19.57;11.93;;;;;;;2.81;100.00;98212.38;5052872;28;20812;-70
2020/12/02 08:46:22;;;;;;;18.40;11.10;;;;;;;2.84;100.00;98201.84;5054979;28;20208;-67
2020/12/02 08:48:52;;;;;;;21.20;11.97;;;;;;;2.86;100.00;98210.44;5054602;28;20696;-67
2020/12/02 08:51:22;;;;;;;18.67;11.37;;;;;;;2.86;100.00;98200.00;5054431;28;20693;-69
2020/12/02 08:53:49;;;;;;;19.37;11.97;;;;;;;2.87;100.00;98206.91;5054700;28;20291;-69
2020/12/02 08:56:25;;;;;;;16.40;11.40;;;;;;;2.91;100.00;98199.81;5054454;28;20206;-69
2020/12/02 08:58:51;;;;;;;21.67;11.57;;;;;;;2.92;100.00;98202.38;5054186;28;20228;-68
2020/12/02 09:01:17;;;;;;;19.33;12.23;;;;;;;2.88;100.00;98198.19;5054283;28;20266;-69
2020/12/02 09:03:43;;;;;;;22.10;13.27;;;;;;;2.89;100.00;98199.88;5054444;28;20273;-69
2020/12/02 09:06:14;;;;;;;19.60;11.80;;;;;;;2.87;100.00;98193.88;5054513;28;20681;-69
2020/12/02 09:08:40;;;;;;;21.60;12.33;;;;;;;2.81;100.00;98195.88;5054023;28;20216;-69
2020/12/02 09:11:06;;;;;;;19.40;12.13;;;;;;;2.78;100.00;98190.75;5052508;28;20258;-69
2020/12/02 09:13:33;;;;;;;20.90;12.27;;;;;;;2.79;100.00;98187.22;5054268;28;20208;-69
2020/12/02 09:15:59;;;;;;;19.63;12.03;;;;;;;2.78;100.00;98186.41;5054228;28;20582;-68
2020/12/02 09:18:25;;;;;;;20.70;12.43;;;;;;;2.76;100.00;98180.38;5054128;28;20281;-68
2020/12/02 09:20:51;;;;;;;22.07;12.40;;;;;;;2.75;100.00;98186.50;5053880;28;20212;-69
2020/12/02 09:23:17;;;;;;;22.63;12.47;;;;;;;2.76;100.00;98182.16;5054244;28;20212;-68
2020/12/02 09:25:43;;;;;;;20.10;12.53;;;;;;;2.77;100.00;98183.84;5069425;28;20635;-68
2020/12/02 09:28:09;;;;;;;20.57;12.90;;;;;;;2.76;100.00;98185.59;5073696;28;20210;-68
2020/12/02 09:30:36;;;;;;;20.23;12.63;;;;;;;2.80;100.00;98183.72;5073901;28;20207;-68
2020/12/02 09:33:03;;;;;;;18.70;11.77;;;;;;;2.82;100.00;98180.13;5073642;28;20707;-68
2020/12/02 09:35:29;;;;;;;20.53;13.03;;;;;;;2.83;100.00;98181.88;5072901;28;20232;-70
2020/12/02 09:37:55;;;;;;;20.20;12.13;;;;;;;2.82;100.00;98171.47;5073288;28;20218;-71
2020/12/02 09:40:21;;;;;;;20.30;12.60;;;;;;;2.85;100.00;98169.59;5073746;28;20235;-71
2020/12/02 09:43:20;;;;;;;21.37;13.30;;;;;;;2.86;100.00;98168.69;5073801;28;20204;-71
2020/12/02 09:45:58;;;;;;;21.43;13.03;;;;;;;2.86;100.00;98166.06;5070535;28;20215;-71
2020/12/02 09:48:26;;;;;;;21.67;12.47;;;;;;;2.83;100.00;98155.78;5073402;28;20215;-71
2020/12/02 09:50:52;;;;;;;22.10;11.77;;;;;;;2.81;100.00;98159.34;5072663;28;20208;-71
2020/12/02 09:53:21;;;;;;;22.00;12.50;;;;;;;2.78;100.00;98157.69;5073542;28;20215;-71
2020/12/02 09:55:47;;;;;;;17.97;11.13;;;;;;;2.77;100.00;98153.41;5073230;28;20214;-71
2020/12/02 09:58:14;;;;;;;19.73;11.47;;;;;;;2.75;100.00;98154.34;5073512;28;20214;-71
2020/12/02 10:00:40;;;;;;;20.03;11.63;;;;;;;2.76;100.00;98151.66;5073486;28;20207;-71
2020/12/02 10:03:35;;;;;;;24.57;12.93;;;;;;;2.76;100.00;98146.44;5071732;28;20211;-71
2020/12/02 10:06:17;;;;;;;24.60;12.47;;;;;;;2.76;100.00;98143.00;5073159;28;20207;-71
2020/12/02 10:08:56;;;;;;;21.33;11.63;;;;;;;2.77;100.00;98135.13;5073073;28;20227;-71
2020/12/02 10:11:31;;;;;;;19.40;11.30;;;;;;;2.83;100.00;98137.50;5073017;28;20214;-71
2020/12/02 10:14:11;;;;;;;19.90;11.50;;;;;;;2.89;100.00;98126.78;5073483;28;20218;-71
2020/12/02 10:16:47;;;;;;;21.40;11.70;;;;;;;2.97;100.00;98127.38;5073393;28;20553;-72
2020/12/02 10:19:46;;;;;;;19.37;11.63;;;;;;;2.96;100.00;98130.88;5072824;28;20231;-71
2020/12/02 10:22:26;;;;;;;19.13;10.13;;;;;;;2.95;100.00;98116.13;5072986;28;20673;-71
2020/12/02 10:25:15;;;;;;;21.23;12.03;;;;;;;2.96;100.00;98122.19;5064487;28;20214;-71
2020/12/02 10:28:02;;;;;;;18.53;10.63;;;;;;;2.96;99.71;98123.06;5052895;28;20215;-71
2020/12/02 10:30:31;;;;;;;20.53;10.77;;;;;;;2.94;100.00;98114.41;5052889;28;20204;-72
2020/12/02 10:33:14;;;;;;;17.53;10.47;;;;;;;2.94;99.51;98109.19;5052729;28;20208;-71
2020/12/02 10:35:46;;;;;;;19.37;11.37;;;;;;;2.90;99.47;98106.78;5052689;28;20212;-71
2020/12/02 10:38:16;;;;;;;21.63;11.90;;;;;;;2.90;100.00;98091.97;5052966;28;20214;-72
2020/12/02 10:40:47;;;;;;;19.67;12.00;;;;;;;2.95;99.57;98094.41;5052692;28;20212;-70
2020/12/02 10:43:22;;;;;;;19.63;11.47;;;;;;;2.99;98.22;98081.16;5052766;28;20218;-71
2020/12/02 10:45:51;;;;;;;19.73;10.90;;;;;;;2.96;98.44;98078.69;5053264;28;20219;-71
2020/12/02 10:48:41;;;;;;;18.93;11.47;;;;;;;2.99;97.91;98078.53;5052933;28;20208;-72
2020/12/02 10:51:12;;;;;;;24.60;12.17;;;;;;;2.99;99.26;98070.72;5051862;28;20689;-72
2020/12/02 10:53:38;;;;;;;21.07;11.90;;;;;;;3.03;99.99;98077.53;5048035;28;20557;-73
2020/12/02 10:56:04;;;;;;;21.40;11.23;;;;;;;3.05;100.00;98067.84;5049104;28;20211;-72
2020/12/02 10:58:31;;;;;;;21.13;11.40;;;;;;;3.12;100.00;98066.69;5051386;28;20208;-73
2020/12/02 11:01:00;;;;;;;18.57;10.47;;;;;;;3.14;98.62;98067.50;5052877;28;20212;-73
2020/12/02 11:03:28;;;;;;;21.13;11.07;;;;;;;3.08;97.29;98059.06;5056328;28;20208;-72
2020/12/02 11:06:22;;;;;;;17.83;10.77;;;;;;;2.92;99.87;98064.03;5056718;28;20217;-72
2020/12/02 11:09:02;;;;;;;18.67;10.87;;;;;;;2.93;100.00;98064.91;5056392;28;20223;-73
2020/12/02 11:11:41;;;;;;;19.17;11.57;;;;;;;2.93;100.00;98051.84;5056367;28;20246;-73
2020/12/02 11:14:16;;;;;;;21.73;12.77;;;;;;;2.99;100.00;98055.06;5056653;28;20219;-73
2020/12/02 11:16:49;;;;;;;18.43;11.40;;;;;;;2.93;100.00;98055.28;5056516;28;20215;-74
2020/12/02 11:19:33;;;;;;;22.37;12.10;;;;;;;2.83;100.00;98048.78;5056394;28;20231;-74
2020/12/02 11:22:12;;;;;;;23.10;12.97;;;;;;;2.82;100.00;98046.22;5054491;28;20212;-74
2020/12/02 11:24:49;;;;;;;21.73;12.07;;;;;;;2.76;100.00;98031.63;5062668;28;20203;-73
2020/12/02 11:27:16;;;;;;;20.70;11.80;;;;;;;2.65;100.00;98033.84;5076280;28;20230;-73
2020/12/02 11:29:42;;;;;;;19.80;11.07;;;;;;;2.66;100.00;98038.13;5075999;28;20218;-73
2020/12/02 11:32:33;;;;;;;21.30;12.43;;;;;;;2.71;100.00;98031.00;5076186;28;20214;-73